sensor_id;sensor_type;location;lat;lon;timestamp;P1;durP1;ratioP1;P2;durP2;ratioP2
29728;SDS011;20055;51.498;11.960;2024-03-02T00:00:38;106.57;;;45.45;;
29728;SDS011;20055;51.498;11.960;2024-03-02T00:03:05;104.25;;;44.83;;
29728;SDS011;20055;51.498;11.960;2024-03-02T00:05:33;98.10;;;42.47;;
29728;SDS011;20055;51.498;11.960;2024-03-02T00:07:59;110.47;;;44.97;;
29728;SDS011;20055;51.498;11.960;2024-03-02T00:10:27;102.03;;;45.33;;
29728;SDS011;20055;51.498;11.960;2024-03-02T00:13:06;105.43;;;45.22;;
29728;SDS011;20055;51.498;11.960;2024-03-02T00:15:45;105.72;;;45.65;;
29728;SDS011;20055;51.498;11.960;2024-03-02T00:18:13;102.25;;;45.17;;
29728;SDS011;20055;51.498;11.960;2024-03-02T00:20:42;93.25;;;43.30;;
29728;SDS011;20055;51.498;11.960;2024-03-02T00:23:09;100.78;;;43.05;;
29728;SDS011;20055;51.498;11.960;2024-03-02T00:25:39;87.95;;;41.40;;
29728;SDS011;20055;51.498;11.960;2024-03-02T00:28:17;86.85;;;41.45;;
29728;SDS011;20055;51.498;11.960;2024-03-02T00:33:11;95.40;;;43.75;;
29728;SDS011;20055;51.498;11.960;2024-03-02T00:35:37;98.82;;;42.38;;
29728;SDS011;20055;51.498;11.960;2024-03-02T00:38:07;94.45;;;43.40;;
29728;SDS011;20055;51.498;11.960;2024-03-02T00:40:33;97.18;;;42.25;;
29728;SDS011;20055;51.498;11.960;2024-03-02T00:42:59;88.55;;;41.58;;
29728;SDS011;20055;51.498;11.960;2024-03-02T00:45:27;91.60;;;40.78;;
29728;SDS011;20055;51.498;11.960;2024-03-02T00:47:53;103.22;;;43.00;;
29728;SDS011;20055;51.498;11.960;2024-03-02T00:50:19;85.13;;;39.97;;
29728;SDS011;20055;51.498;11.960;2024-03-02T00:52:47;99.10;;;43.50;;
29728;SDS011;20055;51.498;11.960;2024-03-02T00:55:16;90.43;;;43.08;;
29728;SDS011;20055;51.498;11.960;2024-03-02T00:57:43;93.10;;;41.95;;
29728;SDS011;20055;51.498;11.960;2024-03-02T01:00:10;98.45;;;43.35;;
29728;SDS011;20055;51.498;11.960;2024-03-02T01:02:40;90.10;;;44.47;;
29728;SDS011;20055;51.498;11.960;2024-03-02T01:05:09;93.55;;;44.65;;
29728;SDS011;20055;51.498;11.960;2024-03-02T01:07:37;97.70;;;43.42;;
29728;SDS011;20055;51.498;11.960;2024-03-02T01:10:04;102.55;;;46.00;;
29728;SDS011;20055;51.498;11.960;2024-03-02T01:12:30;100.90;;;44.28;;
29728;SDS011;20055;51.498;11.960;2024-03-02T01:14:57;98.13;;;43.60;;
29728;SDS011;20055;51.498;11.960;2024-03-02T01:17:23;87.30;;;40.88;;
29728;SDS011;20055;51.498;11.960;2024-03-02T01:19:49;91.57;;;42.35;;
29728;SDS011;20055;51.498;11.960;2024-03-02T01:22:15;87.05;;;41.38;;
29728;SDS011;20055;51.498;11.960;2024-03-02T01:24:42;93.15;;;41.05;;
29728;SDS011;20055;51.498;11.960;2024-03-02T01:27:08;96.47;;;42.15;;
29728;SDS011;20055;51.498;11.960;2024-03-02T01:29:35;87.10;;;41.60;;
29728;SDS011;20055;51.498;11.960;2024-03-02T01:32:01;97.68;;;41.70;;
29728;SDS011;20055;51.498;11.960;2024-03-02T01:34:27;93.03;;;42.30;;
29728;SDS011;20055;51.498;11.960;2024-03-02T01:36:53;90.43;;;41.70;;
29728;SDS011;20055;51.498;11.960;2024-03-02T01:39:19;97.10;;;43.53;;
29728;SDS011;20055;51.498;11.960;2024-03-02T01:41:45;91.75;;;42.83;;
29728;SDS011;20055;51.498;11.960;2024-03-02T01:44:12;95.53;;;43.35;;
29728;SDS011;20055;51.498;11.960;2024-03-02T01:46:38;89.70;;;43.22;;
29728;SDS011;20055;51.498;11.960;2024-03-02T01:49:04;91.13;;;40.50;;
29728;SDS011;20055;51.498;11.960;2024-03-02T01:51:31;97.60;;;42.20;;
29728;SDS011;20055;51.498;11.960;2024-03-02T01:53:58;102.15;;;43.65;;
29728;SDS011;20055;51.498;11.960;2024-03-02T01:56:24;94.05;;;41.85;;
29728;SDS011;20055;51.498;11.960;2024-03-02T01:58:50;91.05;;;41.70;;
29728;SDS011;20055;51.498;11.960;2024-03-02T02:01:17;90.80;;;40.42;;
29728;SDS011;20055;51.498;11.960;2024-03-02T02:03:43;95.40;;;40.90;;
29728;SDS011;20055;51.498;11.960;2024-03-02T02:06:10;93.10;;;39.30;;
29728;SDS011;20055;51.498;11.960;2024-03-02T02:08:39;92.93;;;40.88;;
29728;SDS011;20055;51.498;11.960;2024-03-02T02:11:05;92.50;;;40.67;;
29728;SDS011;20055;51.498;11.960;2024-03-02T02:13:32;90.35;;;41.13;;
29728;SDS011;20055;51.498;11.960;2024-03-02T02:16:05;94.75;;;41.90;;
29728;SDS011;20055;51.498;11.960;2024-03-02T02:18:32;85.95;;;40.75;;
29728;SDS011;20055;51.498;11.960;2024-03-02T02:20:58;92.50;;;42.40;;
29728;SDS011;20055;51.498;11.960;2024-03-02T02:23:27;88.13;;;39.53;;
29728;SDS011;20055;51.498;11.960;2024-03-02T02:25:53;90.85;;;40.10;;
29728;SDS011;20055;51.498;11.960;2024-03-02T02:28:20;94.43;;;41.40;;
29728;SDS011;20055;51.498;11.960;2024-03-02T02:30:46;86.95;;;40.50;;
29728;SDS011;20055;51.498;11.960;2024-03-02T02:33:12;83.68;;;40.17;;
29728;SDS011;20055;51.498;11.960;2024-03-02T02:35:39;86.35;;;39.97;;
29728;SDS011;20055;51.498;11.960;2024-03-02T02:38:05;84.43;;;39.55;;
29728;SDS011;20055;51.498;11.960;2024-03-02T02:40:32;94.60;;;39.40;;
29728;SDS011;20055;51.498;11.960;2024-03-02T02:42:58;83.45;;;40.45;;
29728;SDS011;20055;51.498;11.960;2024-03-02T02:45:25;95.63;;;39.03;;
29728;SDS011;20055;51.498;11.960;2024-03-02T02:47:51;86.95;;;40.28;;
29728;SDS011;20055;51.498;11.960;2024-03-02T02:50:17;83.95;;;38.60;;
29728;SDS011;20055;51.498;11.960;2024-03-02T02:52:43;96.03;;;38.38;;
29728;SDS011;20055;51.498;11.960;2024-03-02T02:55:10;82.20;;;36.78;;
29728;SDS011;20055;51.498;11.960;2024-03-02T02:57:44;81.95;;;38.65;;
29728;SDS011;20055;51.498;11.960;2024-03-02T03:00:12;87.30;;;39.10;;
29728;SDS011;20055;51.498;11.960;2024-03-02T03:02:44;88.38;;;39.55;;
29728;SDS011;20055;51.498;11.960;2024-03-02T03:05:13;87.97;;;38.83;;
29728;SDS011;20055;51.498;11.960;2024-03-02T03:07:40;88.28;;;38.28;;
29728;SDS011;20055;51.498;11.960;2024-03-02T03:10:07;96.60;;;40.72;;
29728;SDS011;20055;51.498;11.960;2024-03-02T03:12:34;100.68;;;39.15;;
29728;SDS011;20055;51.498;11.960;2024-03-02T03:15:01;89.15;;;41.45;;
29728;SDS011;20055;51.498;11.960;2024-03-02T03:17:30;84.20;;;38.95;;
29728;SDS011;20055;51.498;11.960;2024-03-02T03:19:56;78.32;;;36.40;;
29728;SDS011;20055;51.498;11.960;2024-03-02T03:22:22;81.65;;;37.85;;
29728;SDS011;20055;51.498;11.960;2024-03-02T03:24:49;73.22;;;36.20;;
29728;SDS011;20055;51.498;11.960;2024-03-02T03:27:15;85.75;;;37.83;;
29728;SDS011;20055;51.498;11.960;2024-03-02T03:29:41;80.15;;;38.15;;
29728;SDS011;20055;51.498;11.960;2024-03-02T03:32:07;81.78;;;36.80;;
29728;SDS011;20055;51.498;11.960;2024-03-02T03:34:34;84.45;;;37.78;;
29728;SDS011;20055;51.498;11.960;2024-03-02T03:37:01;77.90;;;38.55;;
29728;SDS011;20055;51.498;11.960;2024-03-02T03:39:27;84.25;;;39.60;;
29728;SDS011;20055;51.498;11.960;2024-03-02T03:41:54;84.30;;;38.80;;
29728;SDS011;20055;51.498;11.960;2024-03-02T03:44:20;79.38;;;36.67;;
29728;SDS011;20055;51.498;11.960;2024-03-02T03:46:46;89.50;;;38.80;;
29728;SDS011;20055;51.498;11.960;2024-03-02T03:49:13;74.40;;;36.10;;
29728;SDS011;20055;51.498;11.960;2024-03-02T03:51:39;73.95;;;35.65;;
29728;SDS011;20055;51.498;11.960;2024-03-02T03:54:05;79.85;;;37.05;;
29728;SDS011;20055;51.498;11.960;2024-03-02T03:56:32;80.32;;;36.30;;
29728;SDS011;20055;51.498;11.960;2024-03-02T03:58:58;81.00;;;36.22;;
29728;SDS011;20055;51.498;11.960;2024-03-02T04:01:25;84.25;;;37.45;;
29728;SDS011;20055;51.498;11.960;2024-03-02T04:03:51;73.47;;;33.28;;
29728;SDS011;20055;51.498;11.960;2024-03-02T04:06:17;71.63;;;33.65;;
29728;SDS011;20055;51.498;11.960;2024-03-02T04:08:45;82.25;;;36.65;;
29728;SDS011;20055;51.498;11.960;2024-03-02T04:11:12;78.28;;;35.83;;
29728;SDS011;20055;51.498;11.960;2024-03-02T04:13:39;81.65;;;34.83;;
29728;SDS011;20055;51.498;11.960;2024-03-02T04:16:05;80.55;;;37.35;;
29728;SDS011;20055;51.498;11.960;2024-03-02T04:18:31;75.38;;;36.75;;
29728;SDS011;20055;51.498;11.960;2024-03-02T04:20:58;77.88;;;34.97;;
29728;SDS011;20055;51.498;11.960;2024-03-02T04:23:25;79.10;;;37.20;;
29728;SDS011;20055;51.498;11.960;2024-03-02T04:25:52;76.10;;;34.58;;
29728;SDS011;20055;51.498;11.960;2024-03-02T04:28:20;77.38;;;34.38;;
29728;SDS011;20055;51.498;11.960;2024-03-02T04:30:48;69.45;;;32.90;;
29728;SDS011;20055;51.498;11.960;2024-03-02T04:33:16;80.50;;;36.65;;
29728;SDS011;20055;51.498;11.960;2024-03-02T04:35:45;69.75;;;32.85;;
29728;SDS011;20055;51.498;11.960;2024-03-02T04:41:07;70.55;;;34.28;;
29728;SDS011;20055;51.498;11.960;2024-03-02T04:43:33;75.95;;;34.45;;
29728;SDS011;20055;51.498;11.960;2024-03-02T04:46:00;69.20;;;32.95;;
29728;SDS011;20055;51.498;11.960;2024-03-02T04:51:23;73.38;;;32.63;;
29728;SDS011;20055;51.498;11.960;2024-03-02T04:56:41;64.93;;;31.67;;
29728;SDS011;20055;51.498;11.960;2024-03-02T04:59:10;65.00;;;31.30;;
29728;SDS011;20055;51.498;11.960;2024-03-02T05:01:36;63.42;;;29.23;;
29728;SDS011;20055;51.498;11.960;2024-03-02T05:06:56;61.53;;;28.55;;
29728;SDS011;20055;51.498;11.960;2024-03-02T05:09:25;57.53;;;27.30;;
29728;SDS011;20055;51.498;11.960;2024-03-02T05:11:51;62.25;;;28.40;;
29728;SDS011;20055;51.498;11.960;2024-03-02T05:14:55;59.95;;;27.30;;
29728;SDS011;20055;51.498;11.960;2024-03-02T05:17:21;58.30;;;28.23;;
29728;SDS011;20055;51.498;11.960;2024-03-02T05:19:51;59.58;;;25.92;;
29728;SDS011;20055;51.498;11.960;2024-03-02T05:22:18;45.90;;;25.52;;
29728;SDS011;20055;51.498;11.960;2024-03-02T05:27:44;49.38;;;25.45;;
29728;SDS011;20055;51.498;11.960;2024-03-02T05:30:12;50.53;;;25.05;;
29728;SDS011;20055;51.498;11.960;2024-03-02T05:32:38;51.00;;;25.08;;
29728;SDS011;20055;51.498;11.960;2024-03-02T05:35:04;49.97;;;25.23;;
29728;SDS011;20055;51.498;11.960;2024-03-02T05:37:31;53.15;;;26.15;;
29728;SDS011;20055;51.498;11.960;2024-03-02T05:39:57;49.35;;;25.85;;
29728;SDS011;20055;51.498;11.960;2024-03-02T05:42:25;54.20;;;26.95;;
29728;SDS011;20055;51.498;11.960;2024-03-02T05:44:51;52.47;;;24.88;;
29728;SDS011;20055;51.498;11.960;2024-03-02T05:47:17;50.67;;;25.02;;
29728;SDS011;20055;51.498;11.960;2024-03-02T05:49:43;46.75;;;24.30;;
29728;SDS011;20055;51.498;11.960;2024-03-02T05:52:09;58.47;;;25.95;;
29728;SDS011;20055;51.498;11.960;2024-03-02T05:54:37;55.80;;;26.63;;
29728;SDS011;20055;51.498;11.960;2024-03-02T05:57:04;49.80;;;25.52;;
29728;SDS011;20055;51.498;11.960;2024-03-02T05:59:49;50.05;;;24.80;;
29728;SDS011;20055;51.498;11.960;2024-03-02T06:02:15;56.38;;;25.15;;
29728;SDS011;20055;51.498;11.960;2024-03-02T06:04:41;53.90;;;24.85;;
29728;SDS011;20055;51.498;11.960;2024-03-02T06:07:07;49.83;;;25.13;;
29728;SDS011;20055;51.498;11.960;2024-03-02T06:09:34;51.22;;;24.80;;
29728;SDS011;20055;51.498;11.960;2024-03-02T06:12:00;53.05;;;25.20;;
29728;SDS011;20055;51.498;11.960;2024-03-02T06:14:26;52.83;;;25.83;;
29728;SDS011;20055;51.498;11.960;2024-03-02T06:16:52;54.75;;;25.23;;
29728;SDS011;20055;51.498;11.960;2024-03-02T06:19:20;53.65;;;25.67;;
29728;SDS011;20055;51.498;11.960;2024-03-02T06:21:47;45.10;;;23.50;;
29728;SDS011;20055;51.498;11.960;2024-03-02T06:24:13;50.55;;;25.15;;
29728;SDS011;20055;51.498;11.960;2024-03-02T06:26:39;47.08;;;23.75;;
29728;SDS011;20055;51.498;11.960;2024-03-02T06:29:05;52.55;;;24.65;;
29728;SDS011;20055;51.498;11.960;2024-03-02T06:31:33;50.72;;;24.88;;
29728;SDS011;20055;51.498;11.960;2024-03-02T06:33:59;45.47;;;23.02;;
29728;SDS011;20055;51.498;11.960;2024-03-02T06:36:26;55.50;;;25.25;;
29728;SDS011;20055;51.498;11.960;2024-03-02T06:38:52;50.53;;;24.30;;
29728;SDS011;20055;51.498;11.960;2024-03-02T06:41:18;50.63;;;24.95;;
29728;SDS011;20055;51.498;11.960;2024-03-02T06:43:44;50.63;;;25.23;;
29728;SDS011;20055;51.498;11.960;2024-03-02T06:46:11;49.83;;;24.70;;
29728;SDS011;20055;51.498;11.960;2024-03-02T06:48:40;48.67;;;24.55;;
29728;SDS011;20055;51.498;11.960;2024-03-02T06:51:07;49.22;;;24.98;;
29728;SDS011;20055;51.498;11.960;2024-03-02T06:53:33;55.42;;;24.27;;
29728;SDS011;20055;51.498;11.960;2024-03-02T06:56:00;52.15;;;25.38;;
29728;SDS011;20055;51.498;11.960;2024-03-02T06:58:26;55.80;;;26.67;;
29728;SDS011;20055;51.498;11.960;2024-03-02T07:00:52;59.20;;;26.85;;
29728;SDS011;20055;51.498;11.960;2024-03-02T07:03:19;60.53;;;28.33;;
29728;SDS011;20055;51.498;11.960;2024-03-02T07:05:45;56.78;;;27.85;;
29728;SDS011;20055;51.498;11.960;2024-03-02T07:11:31;65.57;;;29.35;;
29728;SDS011;20055;51.498;11.960;2024-03-02T07:13:58;58.03;;;29.08;;
29728;SDS011;20055;51.498;11.960;2024-03-02T07:16:24;61.10;;;31.67;;
29728;SDS011;20055;51.498;11.960;2024-03-02T07:18:55;74.90;;;33.30;;
29728;SDS011;20055;51.498;11.960;2024-03-02T07:21:22;70.28;;;34.10;;
29728;SDS011;20055;51.498;11.960;2024-03-02T07:23:49;71.05;;;32.78;;
29728;SDS011;20055;51.498;11.960;2024-03-02T07:26:15;71.65;;;36.15;;
29728;SDS011;20055;51.498;11.960;2024-03-02T07:28:50;82.13;;;37.75;;
29728;SDS011;20055;51.498;11.960;2024-03-02T07:31:17;70.30;;;34.63;;
29728;SDS011;20055;51.498;11.960;2024-03-02T07:33:44;71.03;;;33.75;;
29728;SDS011;20055;51.498;11.960;2024-03-02T07:36:11;72.05;;;33.72;;
29728;SDS011;20055;51.498;11.960;2024-03-02T07:38:37;63.20;;;31.08;;
29728;SDS011;20055;51.498;11.960;2024-03-02T07:41:04;66.70;;;33.88;;
29728;SDS011;20055;51.498;11.960;2024-03-02T07:43:30;65.20;;;31.27;;
29728;SDS011;20055;51.498;11.960;2024-03-02T07:45:59;68.72;;;32.83;;
29728;SDS011;20055;51.498;11.960;2024-03-02T07:48:26;64.18;;;31.48;;
29728;SDS011;20055;51.498;11.960;2024-03-02T07:50:53;60.92;;;31.00;;
29728;SDS011;20055;51.498;11.960;2024-03-02T07:53:19;59.28;;;30.15;;
29728;SDS011;20055;51.498;11.960;2024-03-02T07:55:45;54.70;;;29.27;;
29728;SDS011;20055;51.498;11.960;2024-03-02T07:58:11;56.42;;;27.85;;
29728;SDS011;20055;51.498;11.960;2024-03-02T08:00:39;50.10;;;26.58;;
29728;SDS011;20055;51.498;11.960;2024-03-02T08:03:06;56.83;;;28.10;;
29728;SDS011;20055;51.498;11.960;2024-03-02T08:05:32;86.30;;;42.92;;
29728;SDS011;20055;51.498;11.960;2024-03-02T08:07:58;65.03;;;32.35;;
29728;SDS011;20055;51.498;11.960;2024-03-02T08:10:25;64.20;;;30.88;;
29728;SDS011;20055;51.498;11.960;2024-03-02T08:12:51;60.35;;;30.38;;
29728;SDS011;20055;51.498;11.960;2024-03-02T08:15:17;63.22;;;31.60;;
29728;SDS011;20055;51.498;11.960;2024-03-02T08:17:43;60.10;;;29.90;;
29728;SDS011;20055;51.498;11.960;2024-03-02T08:20:15;65.70;;;30.48;;
29728;SDS011;20055;51.498;11.960;2024-03-02T08:22:41;68.65;;;32.75;;
29728;SDS011;20055;51.498;11.960;2024-03-02T08:25:08;62.17;;;31.80;;
29728;SDS011;20055;51.498;11.960;2024-03-02T08:27:35;70.47;;;31.27;;
29728;SDS011;20055;51.498;11.960;2024-03-02T08:30:01;66.53;;;33.72;;
29728;SDS011;20055;51.498;11.960;2024-03-02T08:32:32;64.18;;;31.40;;
29728;SDS011;20055;51.498;11.960;2024-03-02T08:34:58;60.22;;;30.38;;
29728;SDS011;20055;51.498;11.960;2024-03-02T08:37:24;68.55;;;30.73;;
29728;SDS011;20055;51.498;11.960;2024-03-02T08:39:50;57.60;;;29.92;;
29728;SDS011;20055;51.498;11.960;2024-03-02T08:42:17;69.63;;;31.50;;
29728;SDS011;20055;51.498;11.960;2024-03-02T08:44:43;67.57;;;32.47;;
29728;SDS011;20055;51.498;11.960;2024-03-02T08:47:09;66.88;;;30.02;;
29728;SDS011;20055;51.498;11.960;2024-03-02T08:49:36;69.53;;;30.65;;
29728;SDS011;20055;51.498;11.960;2024-03-02T08:52:02;67.60;;;30.77;;
29728;SDS011;20055;51.498;11.960;2024-03-02T08:54:29;67.35;;;31.45;;
29728;SDS011;20055;51.498;11.960;2024-03-02T08:56:55;68.38;;;30.90;;
29728;SDS011;20055;51.498;11.960;2024-03-02T08:59:22;75.90;;;31.85;;
29728;SDS011;20055;51.498;11.960;2024-03-02T09:01:50;72.00;;;31.48;;
29728;SDS011;20055;51.498;11.960;2024-03-02T09:04:16;64.30;;;30.25;;
29728;SDS011;20055;51.498;11.960;2024-03-02T09:06:43;66.00;;;31.42;;
29728;SDS011;20055;51.498;11.960;2024-03-02T09:09:09;68.63;;;32.33;;
29728;SDS011;20055;51.498;11.960;2024-03-02T09:11:35;73.22;;;31.67;;
29728;SDS011;20055;51.498;11.960;2024-03-02T09:14:01;75.70;;;32.95;;
29728;SDS011;20055;51.498;11.960;2024-03-02T09:16:28;66.43;;;32.60;;
29728;SDS011;20055;51.498;11.960;2024-03-02T09:18:56;64.32;;;30.70;;
29728;SDS011;20055;51.498;11.960;2024-03-02T09:21:22;64.00;;;29.65;;
29728;SDS011;20055;51.498;11.960;2024-03-02T09:23:49;67.47;;;31.88;;
29728;SDS011;20055;51.498;11.960;2024-03-02T09:26:15;68.70;;;32.45;;
29728;SDS011;20055;51.498;11.960;2024-03-02T09:28:44;63.15;;;29.98;;
29728;SDS011;20055;51.498;11.960;2024-03-02T09:31:11;67.72;;;30.63;;
29728;SDS011;20055;51.498;11.960;2024-03-02T09:33:37;65.22;;;30.63;;
29728;SDS011;20055;51.498;11.960;2024-03-02T09:36:05;54.92;;;29.02;;
29728;SDS011;20055;51.498;11.960;2024-03-02T09:38:34;65.28;;;29.27;;
29728;SDS011;20055;51.498;11.960;2024-03-02T09:41:00;60.83;;;27.80;;
29728;SDS011;20055;51.498;11.960;2024-03-02T09:43:27;55.08;;;27.90;;
29728;SDS011;20055;51.498;11.960;2024-03-02T09:45:53;59.47;;;27.85;;
29728;SDS011;20055;51.498;11.960;2024-03-02T09:48:19;61.92;;;26.90;;
29728;SDS011;20055;51.498;11.960;2024-03-02T09:50:46;52.75;;;27.15;;
29728;SDS011;20055;51.498;11.960;2024-03-02T09:53:12;57.45;;;26.90;;
29728;SDS011;20055;51.498;11.960;2024-03-02T09:55:40;57.35;;;27.65;;
29728;SDS011;20055;51.498;11.960;2024-03-02T09:58:09;57.65;;;25.65;;
29728;SDS011;20055;51.498;11.960;2024-03-02T10:00:35;57.35;;;28.17;;
29728;SDS011;20055;51.498;11.960;2024-03-02T10:03:01;51.53;;;27.02;;
29728;SDS011;20055;51.498;11.960;2024-03-02T10:05:28;50.58;;;25.35;;
29728;SDS011;20055;51.498;11.960;2024-03-02T10:08:01;58.97;;;25.25;;
29728;SDS011;20055;51.498;11.960;2024-03-02T10:10:37;62.75;;;26.42;;
29728;SDS011;20055;51.498;11.960;2024-03-02T10:15:36;52.42;;;25.25;;
29728;SDS011;20055;51.498;11.960;2024-03-02T10:18:04;50.75;;;23.83;;
29728;SDS011;20055;51.498;11.960;2024-03-02T10:20:30;49.47;;;24.67;;
29728;SDS011;20055;51.498;11.960;2024-03-02T10:23:09;49.05;;;23.75;;
29728;SDS011;20055;51.498;11.960;2024-03-02T10:25:37;45.80;;;22.08;;
29728;SDS011;20055;51.498;11.960;2024-03-02T10:28:03;43.05;;;22.45;;
29728;SDS011;20055;51.498;11.960;2024-03-02T10:30:32;47.55;;;23.10;;
29728;SDS011;20055;51.498;11.960;2024-03-02T10:32:59;52.78;;;23.38;;
29728;SDS011;20055;51.498;11.960;2024-03-02T10:35:29;48.42;;;23.63;;
29728;SDS011;20055;51.498;11.960;2024-03-02T10:38:00;45.67;;;23.88;;
29728;SDS011;20055;51.498;11.960;2024-03-02T10:40:29;49.72;;;25.25;;
29728;SDS011;20055;51.498;11.960;2024-03-02T10:42:55;50.88;;;24.05;;
29728;SDS011;20055;51.498;11.960;2024-03-02T10:45:23;46.88;;;23.75;;
29728;SDS011;20055;51.498;11.960;2024-03-02T10:47:50;47.92;;;23.30;;
29728;SDS011;20055;51.498;11.960;2024-03-02T10:50:17;47.78;;;24.45;;
29728;SDS011;20055;51.498;11.960;2024-03-02T10:52:43;49.35;;;24.38;;
29728;SDS011;20055;51.498;11.960;2024-03-02T10:55:10;46.72;;;22.63;;
29728;SDS011;20055;51.498;11.960;2024-03-02T10:57:40;49.45;;;25.88;;
29728;SDS011;20055;51.498;11.960;2024-03-02T11:00:11;47.35;;;23.88;;
29728;SDS011;20055;51.498;11.960;2024-03-02T11:02:42;47.80;;;23.92;;
29728;SDS011;20055;51.498;11.960;2024-03-02T11:05:16;45.17;;;22.27;;
29728;SDS011;20055;51.498;11.960;2024-03-02T11:07:51;55.58;;;26.23;;
29728;SDS011;20055;51.498;11.960;2024-03-02T11:10:23;40.45;;;21.88;;
29728;SDS011;20055;51.498;11.960;2024-03-02T11:12:54;43.50;;;22.58;;
29728;SDS011;20055;51.498;11.960;2024-03-02T11:15:26;52.95;;;27.17;;
29728;SDS011;20055;51.498;11.960;2024-03-02T11:17:53;49.03;;;24.70;;
29728;SDS011;20055;51.498;11.960;2024-03-02T11:20:20;46.45;;;23.98;;
29728;SDS011;20055;51.498;11.960;2024-03-02T11:22:47;36.75;;;20.38;;
29728;SDS011;20055;51.498;11.960;2024-03-02T11:25:23;41.22;;;19.98;;
29728;SDS011;20055;51.498;11.960;2024-03-02T11:32:58;44.30;;;20.23;;
29728;SDS011;20055;51.498;11.960;2024-03-02T11:35:25;41.42;;;19.30;;
29728;SDS011;20055;51.498;11.960;2024-03-02T11:37:52;36.28;;;18.52;;
29728;SDS011;20055;51.498;11.960;2024-03-02T11:40:21;37.60;;;20.38;;
29728;SDS011;20055;51.498;11.960;2024-03-02T11:42:47;39.35;;;20.58;;
29728;SDS011;20055;51.498;11.960;2024-03-02T11:45:17;40.72;;;21.27;;
29728;SDS011;20055;51.498;11.960;2024-03-02T11:47:50;37.60;;;19.70;;
29728;SDS011;20055;51.498;11.960;2024-03-02T11:50:36;35.83;;;19.15;;
29728;SDS011;20055;51.498;11.960;2024-03-02T11:53:07;37.97;;;18.65;;
29728;SDS011;20055;51.498;11.960;2024-03-02T11:55:36;34.88;;;18.88;;
29728;SDS011;20055;51.498;11.960;2024-03-02T11:58:03;42.33;;;20.13;;
29728;SDS011;20055;51.498;11.960;2024-03-02T12:00:30;50.53;;;21.77;;
29728;SDS011;20055;51.498;11.960;2024-03-02T12:03:00;40.72;;;20.75;;
29728;SDS011;20055;51.498;11.960;2024-03-02T12:05:27;41.33;;;18.23;;
29728;SDS011;20055;51.498;11.960;2024-03-02T12:08:00;33.10;;;18.70;;
29728;SDS011;20055;51.498;11.960;2024-03-02T12:10:34;36.80;;;18.13;;
29728;SDS011;20055;51.498;11.960;2024-03-02T12:13:02;38.53;;;19.15;;
29728;SDS011;20055;51.498;11.960;2024-03-02T12:15:30;31.20;;;17.30;;
29728;SDS011;20055;51.498;11.960;2024-03-02T12:17:58;30.67;;;16.55;;
29728;SDS011;20055;51.498;11.960;2024-03-02T12:20:27;39.75;;;15.80;;
29728;SDS011;20055;51.498;11.960;2024-03-02T12:22:55;32.35;;;15.50;;
29728;SDS011;20055;51.498;11.960;2024-03-02T12:25:26;29.55;;;13.15;;
29728;SDS011;20055;51.498;11.960;2024-03-02T12:27:56;29.55;;;14.55;;
29728;SDS011;20055;51.498;11.960;2024-03-02T12:30:23;28.35;;;15.05;;
29728;SDS011;20055;51.498;11.960;2024-03-02T12:32:50;30.83;;;15.70;;
29728;SDS011;20055;51.498;11.960;2024-03-02T12:35:17;32.03;;;14.25;;
29728;SDS011;20055;51.498;11.960;2024-03-02T12:37:44;27.35;;;14.65;;
29728;SDS011;20055;51.498;11.960;2024-03-02T12:40:12;29.70;;;14.93;;
29728;SDS011;20055;51.498;11.960;2024-03-02T12:42:39;29.98;;;15.52;;
29728;SDS011;20055;51.498;11.960;2024-03-02T12:45:08;32.47;;;15.75;;
29728;SDS011;20055;51.498;11.960;2024-03-02T12:47:34;33.60;;;17.45;;
29728;SDS011;20055;51.498;11.960;2024-03-02T12:50:01;28.25;;;14.75;;
29728;SDS011;20055;51.498;11.960;2024-03-02T12:52:29;29.33;;;15.80;;
29728;SDS011;20055;51.498;11.960;2024-03-02T12:54:56;30.10;;;14.85;;
29728;SDS011;20055;51.498;11.960;2024-03-02T12:57:31;27.23;;;14.32;;
29728;SDS011;20055;51.498;11.960;2024-03-02T13:00:05;25.00;;;13.48;;
29728;SDS011;20055;51.498;11.960;2024-03-02T13:02:35;28.58;;;14.98;;
29728;SDS011;20055;51.498;11.960;2024-03-02T13:05:02;27.33;;;13.80;;
29728;SDS011;20055;51.498;11.960;2024-03-02T13:07:29;24.70;;;13.60;;
29728;SDS011;20055;51.498;11.960;2024-03-02T13:09:55;29.50;;;14.23;;
29728;SDS011;20055;51.498;11.960;2024-03-02T13:12:22;29.35;;;12.85;;
29728;SDS011;20055;51.498;11.960;2024-03-02T13:14:53;25.83;;;13.07;;
29728;SDS011;20055;51.498;11.960;2024-03-02T13:17:20;35.15;;;13.85;;
29728;SDS011;20055;51.498;11.960;2024-03-02T13:19:56;30.92;;;13.48;;
29728;SDS011;20055;51.498;11.960;2024-03-02T13:22:23;22.27;;;12.95;;
29728;SDS011;20055;51.498;11.960;2024-03-02T13:24:50;24.27;;;13.15;;
29728;SDS011;20055;51.498;11.960;2024-03-02T13:27:17;27.85;;;13.35;;
29728;SDS011;20055;51.498;11.960;2024-03-02T13:29:46;27.42;;;11.48;;
29728;SDS011;20055;51.498;11.960;2024-03-02T13:32:16;24.08;;;11.55;;
29728;SDS011;20055;51.498;11.960;2024-03-02T13:34:43;17.27;;;10.57;;
29728;SDS011;20055;51.498;11.960;2024-03-02T13:37:09;20.58;;;10.02;;
29728;SDS011;20055;51.498;11.960;2024-03-02T13:39:35;22.13;;;11.52;;
29728;SDS011;20055;51.498;11.960;2024-03-02T13:42:08;28.73;;;11.85;;
29728;SDS011;20055;51.498;11.960;2024-03-02T13:44:40;19.63;;;10.77;;
29728;SDS011;20055;51.498;11.960;2024-03-02T13:47:11;22.70;;;11.23;;
29728;SDS011;20055;51.498;11.960;2024-03-02T13:49:37;26.02;;;10.88;;
29728;SDS011;20055;51.498;11.960;2024-03-02T13:52:05;18.58;;;10.95;;
29728;SDS011;20055;51.498;11.960;2024-03-02T13:54:39;16.17;;;10.05;;
29728;SDS011;20055;51.498;11.960;2024-03-02T13:57:07;16.60;;;8.50;;
29728;SDS011;20055;51.498;11.960;2024-03-02T13:59:34;21.23;;;9.10;;
29728;SDS011;20055;51.498;11.960;2024-03-02T14:02:01;18.48;;;10.07;;
29728;SDS011;20055;51.498;11.960;2024-03-02T14:04:35;28.70;;;11.60;;
29728;SDS011;20055;51.498;11.960;2024-03-02T14:07:02;19.10;;;11.27;;
29728;SDS011;20055;51.498;11.960;2024-03-02T14:09:29;23.80;;;11.77;;
29728;SDS011;20055;51.498;11.960;2024-03-02T14:11:56;24.95;;;11.98;;
29728;SDS011;20055;51.498;11.960;2024-03-02T14:14:22;22.00;;;12.15;;
29728;SDS011;20055;51.498;11.960;2024-03-02T14:16:49;18.48;;;11.15;;
29728;SDS011;20055;51.498;11.960;2024-03-02T14:19:15;20.52;;;9.40;;
29728;SDS011;20055;51.498;11.960;2024-03-02T14:21:41;26.45;;;9.65;;
29728;SDS011;20055;51.498;11.960;2024-03-02T14:24:07;20.40;;;10.07;;
29728;SDS011;20055;51.498;11.960;2024-03-02T14:26:34;19.60;;;9.68;;
29728;SDS011;20055;51.498;11.960;2024-03-02T14:29:02;19.25;;;10.43;;
29728;SDS011;20055;51.498;11.960;2024-03-02T14:31:29;19.85;;;10.82;;
29728;SDS011;20055;51.498;11.960;2024-03-02T14:33:56;17.02;;;9.38;;
29728;SDS011;20055;51.498;11.960;2024-03-02T14:36:23;16.63;;;8.93;;
29728;SDS011;20055;51.498;11.960;2024-03-02T14:38:49;15.35;;;8.77;;